sensor_id;sensor_type;location;lat;lon;timestamp;P1;durP1;ratioP1;P2;durP2;ratioP2
11807;SDS011;5961;42.640;23.380;2023-05-21T00:02:13;10.13;;;5.97;;
11807;SDS011;5961;42.640;23.380;2023-05-21T00:04:41;9.93;;;6.20;;
11807;SDS011;5961;42.640;23.380;2023-05-21T00:07:08;10.30;;;5.93;;
11807;SDS011;5961;42.640;23.380;2023-05-21T00:09:36;10.03;;;6.23;;
11807;SDS011;5961;42.640;23.380;2023-05-21T00:12:03;10.33;;;6.17;;
11807;SDS011;5961;42.640;23.380;2023-05-21T00:14:30;7.33;;;5.13;;
11807;SDS011;5961;42.640;23.380;2023-05-21T00:16:58;7.00;;;5.30;;
11807;SDS011;5961;42.640;23.380;2023-05-21T00:19:25;7.63;;;5.50;;
11807;SDS011;5961;42.640;23.380;2023-05-21T00:21:52;8.70;;;4.80;;
11807;SDS011;5961;42.640;23.380;2023-05-21T00:24:18;6.37;;;4.73;;
11807;SDS011;5961;42.640;23.380;2023-05-21T00:26:45;6.10;;;4.53;;
11807;SDS011;5961;42.640;23.380;2023-05-21T00:29:12;7.23;;;4.60;;
11807;SDS011;5961;42.640;23.380;2023-05-21T00:31:38;7.13;;;4.90;;
11807;SDS011;5961;42.640;23.380;2023-05-21T00:34:06;8.77;;;5.33;;
11807;SDS011;5961;42.640;23.380;2023-05-21T00:36:33;7.73;;;5.30;;
11807;SDS011;5961;42.640;23.380;2023-05-21T00:39:00;10.40;;;5.27;;
11807;SDS011;5961;42.640;23.380;2023-05-21T00:41:28;7.73;;;4.90;;
11807;SDS011;5961;42.640;23.380;2023-05-21T00:43:55;7.80;;;5.00;;
11807;SDS011;5961;42.640;23.380;2023-05-21T00:46:24;8.90;;;5.37;;
11807;SDS011;5961;42.640;23.380;2023-05-21T00:48:53;6.80;;;4.93;;
11807;SDS011;5961;42.640;23.380;2023-05-21T00:51:23;7.10;;;5.17;;
11807;SDS011;5961;42.640;23.380;2023-05-21T00:53:54;7.50;;;5.20;;
11807;SDS011;5961;42.640;23.380;2023-05-21T00:56:22;6.90;;;5.03;;
11807;SDS011;5961;42.640;23.380;2023-05-21T00:58:50;7.03;;;4.77;;
11807;SDS011;5961;42.640;23.380;2023-05-21T01:01:17;7.53;;;4.37;;
11807;SDS011;5961;42.640;23.380;2023-05-21T01:03:44;9.33;;;5.27;;
11807;SDS011;5961;42.640;23.380;2023-05-21T01:06:12;5.63;;;4.50;;
11807;SDS011;5961;42.640;23.380;2023-05-21T01:08:41;12.47;;;5.00;;
11807;SDS011;5961;42.640;23.380;2023-05-21T01:11:08;6.13;;;5.00;;
11807;SDS011;5961;42.640;23.380;2023-05-21T01:13:36;6.97;;;4.20;;
11807;SDS011;5961;42.640;23.380;2023-05-21T01:16:06;5.60;;;4.47;;
11807;SDS011;5961;42.640;23.380;2023-05-21T01:18:34;6.10;;;4.70;;
11807;SDS011;5961;42.640;23.380;2023-05-21T01:21:01;10.40;;;5.27;;
11807;SDS011;5961;42.640;23.380;2023-05-21T01:23:30;9.37;;;5.83;;
11807;SDS011;5961;42.640;23.380;2023-05-21T01:25:57;10.93;;;6.73;;
11807;SDS011;5961;42.640;23.380;2023-05-21T01:28:24;11.67;;;7.63;;
11807;SDS011;5961;42.640;23.380;2023-05-21T01:30:50;9.97;;;7.40;;
11807;SDS011;5961;42.640;23.380;2023-05-21T01:33:18;10.13;;;6.40;;
11807;SDS011;5961;42.640;23.380;2023-05-21T01:35:53;8.97;;;6.67;;
11807;SDS011;5961;42.640;23.380;2023-05-21T01:38:28;9.90;;;5.90;;
11807;SDS011;5961;42.640;23.380;2023-05-21T01:41:03;9.87;;;6.37;;
11807;SDS011;5961;42.640;23.380;2023-05-21T01:43:37;8.53;;;5.77;;
11807;SDS011;5961;42.640;23.380;2023-05-21T01:46:06;7.60;;;5.83;;
11807;SDS011;5961;42.640;23.380;2023-05-21T01:48:36;9.63;;;6.40;;
11807;SDS011;5961;42.640;23.380;2023-05-21T01:51:04;10.17;;;6.23;;
11807;SDS011;5961;42.640;23.380;2023-05-21T01:53:32;12.13;;;7.23;;
11807;SDS011;5961;42.640;23.380;2023-05-21T01:55:59;10.27;;;7.00;;
11807;SDS011;5961;42.640;23.380;2023-05-21T01:58:26;10.50;;;7.53;;
11807;SDS011;5961;42.640;23.380;2023-05-21T02:00:53;18.80;;;9.07;;
11807;SDS011;5961;42.640;23.380;2023-05-21T02:03:21;10.73;;;8.40;;
11807;SDS011;5961;42.640;23.380;2023-05-21T02:05:50;14.77;;;8.77;;
11807;SDS011;5961;42.640;23.380;2023-05-21T02:08:17;13.47;;;8.73;;
11807;SDS011;5961;42.640;23.380;2023-05-21T02:10:46;11.13;;;8.83;;
11807;SDS011;5961;42.640;23.380;2023-05-21T02:13:12;14.23;;;8.90;;
11807;SDS011;5961;42.640;23.380;2023-05-21T02:15:40;12.10;;;8.57;;
11807;SDS011;5961;42.640;23.380;2023-05-21T02:18:07;13.67;;;9.63;;
11807;SDS011;5961;42.640;23.380;2023-05-21T02:20:33;14.87;;;9.67;;
11807;SDS011;5961;42.640;23.380;2023-05-21T02:23:00;15.83;;;9.17;;
11807;SDS011;5961;42.640;23.380;2023-05-21T02:25:27;15.57;;;9.20;;
11807;SDS011;5961;42.640;23.380;2023-05-21T02:27:55;12.93;;;9.23;;
11807;SDS011;5961;42.640;23.380;2023-05-21T02:30:21;15.27;;;10.70;;
11807;SDS011;5961;42.640;23.380;2023-05-21T02:32:48;14.07;;;9.53;;
11807;SDS011;5961;42.640;23.380;2023-05-21T02:35:15;13.80;;;9.43;;
11807;SDS011;5961;42.640;23.380;2023-05-21T02:37:41;13.57;;;10.00;;
11807;SDS011;5961;42.640;23.380;2023-05-21T02:40:09;15.33;;;10.17;;
11807;SDS011;5961;42.640;23.380;2023-05-21T02:42:36;15.17;;;10.90;;
11807;SDS011;5961;42.640;23.380;2023-05-21T02:45:05;14.87;;;10.40;;
11807;SDS011;5961;42.640;23.380;2023-05-21T02:47:33;14.67;;;11.07;;
11807;SDS011;5961;42.640;23.380;2023-05-21T02:50:00;13.67;;;10.60;;
11807;SDS011;5961;42.640;23.380;2023-05-21T02:52:27;14.00;;;10.87;;
11807;SDS011;5961;42.640;23.380;2023-05-21T02:54:53;14.50;;;10.63;;
11807;SDS011;5961;42.640;23.380;2023-05-21T02:57:20;14.53;;;10.47;;
11807;SDS011;5961;42.640;23.380;2023-05-21T02:59:47;14.13;;;10.77;;
11807;SDS011;5961;42.640;23.380;2023-05-21T03:02:15;14.93;;;10.40;;
11807;SDS011;5961;42.640;23.380;2023-05-21T03:04:42;16.97;;;10.47;;
11807;SDS011;5961;42.640;23.380;2023-05-21T03:07:11;14.43;;;10.50;;
11807;SDS011;5961;42.640;23.380;2023-05-21T03:09:39;13.60;;;10.20;;
11807;SDS011;5961;42.640;23.380;2023-05-21T03:12:06;12.83;;;9.73;;
11807;SDS011;5961;42.640;23.380;2023-05-21T03:14:33;14.57;;;10.20;;
11807;SDS011;5961;42.640;23.380;2023-05-21T03:17:00;14.80;;;10.50;;
11807;SDS011;5961;42.640;23.380;2023-05-21T03:19:31;13.93;;;10.30;;
11807;SDS011;5961;42.640;23.380;2023-05-21T03:21:58;15.87;;;11.30;;
11807;SDS011;5961;42.640;23.380;2023-05-21T03:24:25;15.90;;;10.57;;
11807;SDS011;5961;42.640;23.380;2023-05-21T03:26:53;15.77;;;10.90;;
11807;SDS011;5961;42.640;23.380;2023-05-21T03:29:19;16.30;;;10.53;;
11807;SDS011;5961;42.640;23.380;2023-05-21T03:31:46;19.43;;;10.93;;
11807;SDS011;5961;42.640;23.380;2023-05-21T03:34:13;16.37;;;10.63;;
11807;SDS011;5961;42.640;23.380;2023-05-21T03:36:41;14.40;;;9.90;;
11807;SDS011;5961;42.640;23.380;2023-05-21T03:39:08;16.20;;;10.57;;
11807;SDS011;5961;42.640;23.380;2023-05-21T03:41:35;25.20;;;17.07;;
11807;SDS011;5961;42.640;23.380;2023-05-21T03:44:01;22.27;;;14.57;;
11807;SDS011;5961;42.640;23.380;2023-05-21T03:46:28;22.37;;;15.60;;
11807;SDS011;5961;42.640;23.380;2023-05-21T03:48:55;16.50;;;12.20;;
11807;SDS011;5961;42.640;23.380;2023-05-21T03:51:23;17.33;;;12.53;;
11807;SDS011;5961;42.640;23.380;2023-05-21T03:53:51;10.43;;;8.37;;
11807;SDS011;5961;42.640;23.380;2023-05-21T03:56:18;17.57;;;10.23;;
11807;SDS011;5961;42.640;23.380;2023-05-21T03:58:45;10.90;;;8.03;;
11807;SDS011;5961;42.640;23.380;2023-05-21T04:01:12;14.00;;;7.83;;
11807;SDS011;5961;42.640;23.380;2023-05-21T04:03:38;12.77;;;6.80;;
11807;SDS011;5961;42.640;23.380;2023-05-21T04:06:05;10.00;;;6.60;;
11807;SDS011;5961;42.640;23.380;2023-05-21T04:08:34;13.37;;;7.20;;
11807;SDS011;5961;42.640;23.380;2023-05-21T04:11:03;8.37;;;6.00;;
11807;SDS011;5961;42.640;23.380;2023-05-21T04:13:30;10.17;;;6.03;;
11807;SDS011;5961;42.640;23.380;2023-05-21T04:15:56;10.40;;;6.30;;
11807;SDS011;5961;42.640;23.380;2023-05-21T04:18:23;10.60;;;6.30;;
11807;SDS011;5961;42.640;23.380;2023-05-21T04:20:50;7.00;;;5.00;;
11807;SDS011;5961;42.640;23.380;2023-05-21T04:23:17;7.93;;;5.67;;
11807;SDS011;5961;42.640;23.380;2023-05-21T04:25:47;11.57;;;7.40;;
11807;SDS011;5961;42.640;23.380;2023-05-21T04:28:16;15.20;;;8.00;;
11807;SDS011;5961;42.640;23.380;2023-05-21T04:30:44;8.13;;;6.30;;
11807;SDS011;5961;42.640;23.380;2023-05-21T04:33:11;7.07;;;5.53;;
11807;SDS011;5961;42.640;23.380;2023-05-21T04:35:39;7.60;;;4.77;;
11807;SDS011;5961;42.640;23.380;2023-05-21T04:38:08;12.37;;;5.13;;
11807;SDS011;5961;42.640;23.380;2023-05-21T04:40:36;10.87;;;5.67;;
11807;SDS011;5961;42.640;23.380;2023-05-21T04:43:04;8.00;;;4.90;;
11807;SDS011;5961;42.640;23.380;2023-05-21T04:45:33;9.20;;;5.00;;
11807;SDS011;5961;42.640;23.380;2023-05-21T04:48:00;9.67;;;5.83;;
11807;SDS011;5961;42.640;23.380;2023-05-21T04:50:26;7.40;;;5.00;;
11807;SDS011;5961;42.640;23.380;2023-05-21T04:52:54;10.07;;;7.63;;
11807;SDS011;5961;42.640;23.380;2023-05-21T04:55:22;10.13;;;5.97;;
11807;SDS011;5961;42.640;23.380;2023-05-21T04:57:50;7.03;;;5.53;;
11807;SDS011;5961;42.640;23.380;2023-05-21T05:00:17;6.13;;;5.17;;
11807;SDS011;5961;42.640;23.380;2023-05-21T05:02:47;10.50;;;5.53;;
11807;SDS011;5961;42.640;23.380;2023-05-21T05:05:13;9.63;;;5.40;;
11807;SDS011;5961;42.640;23.380;2023-05-21T05:07:40;6.43;;;4.80;;
11807;SDS011;5961;42.640;23.380;2023-05-21T05:10:07;7.50;;;5.10;;
11807;SDS011;5961;42.640;23.380;2023-05-21T05:12:34;10.00;;;4.43;;
11807;SDS011;5961;42.640;23.380;2023-05-21T05:15:01;6.50;;;4.80;;
11807;SDS011;5961;42.640;23.380;2023-05-21T05:17:27;9.57;;;6.63;;
11807;SDS011;5961;42.640;23.380;2023-05-21T05:19:55;8.07;;;5.80;;
11807;SDS011;5961;42.640;23.380;2023-05-21T05:22:22;11.10;;;5.23;;
11807;SDS011;5961;42.640;23.380;2023-05-21T05:24:49;11.67;;;4.83;;
11807;SDS011;5961;42.640;23.380;2023-05-21T05:27:15;8.50;;;5.27;;
11807;SDS011;5961;42.640;23.380;2023-05-21T05:29:43;10.07;;;5.00;;
11807;SDS011;5961;42.640;23.380;2023-05-21T05:32:09;9.73;;;5.00;;
11807;SDS011;5961;42.640;23.380;2023-05-21T05:34:36;10.47;;;4.87;;
11807;SDS011;5961;42.640;23.380;2023-05-21T05:37:04;7.03;;;5.23;;
11807;SDS011;5961;42.640;23.380;2023-05-21T05:39:31;7.37;;;4.90;;
11807;SDS011;5961;42.640;23.380;2023-05-21T05:41:58;6.13;;;4.90;;
11807;SDS011;5961;42.640;23.380;2023-05-21T05:44:25;10.03;;;5.27;;
11807;SDS011;5961;42.640;23.380;2023-05-21T05:46:52;6.73;;;5.43;;
11807;SDS011;5961;42.640;23.380;2023-05-21T05:49:18;5.97;;;4.80;;
11807;SDS011;5961;42.640;23.380;2023-05-21T05:51:45;8.37;;;5.03;;
11807;SDS011;5961;42.640;23.380;2023-05-21T05:54:14;9.07;;;5.30;;
11807;SDS011;5961;42.640;23.380;2023-05-21T05:56:40;10.00;;;5.53;;
11807;SDS011;5961;42.640;23.380;2023-05-21T05:59:07;10.23;;;5.80;;
11807;SDS011;5961;42.640;23.380;2023-05-21T06:01:34;7.90;;;5.63;;
11807;SDS011;5961;42.640;23.380;2023-05-21T06:04:00;7.13;;;5.00;;
11807;SDS011;5961;42.640;23.380;2023-05-21T06:06:27;7.97;;;4.90;;
11807;SDS011;5961;42.640;23.380;2023-05-21T06:08:54;8.47;;;5.23;;
11807;SDS011;5961;42.640;23.380;2023-05-21T06:11:22;9.03;;;5.77;;
11807;SDS011;5961;42.640;23.380;2023-05-21T06:13:48;10.33;;;5.33;;
11807;SDS011;5961;42.640;23.380;2023-05-21T06:16:15;7.97;;;5.50;;
11807;SDS011;5961;42.640;23.380;2023-05-21T06:18:42;9.13;;;5.23;;
11807;SDS011;5961;42.640;23.380;2023-05-21T06:21:08;5.73;;;4.67;;
11807;SDS011;5961;42.640;23.380;2023-05-21T06:23:35;10.47;;;5.50;;
11807;SDS011;5961;42.640;23.380;2023-05-21T06:26:02;8.37;;;5.03;;
11807;SDS011;5961;42.640;23.380;2023-05-21T06:28:30;10.43;;;5.80;;
11807;SDS011;5961;42.640;23.380;2023-05-21T06:30:57;13.50;;;5.73;;
11807;SDS011;5961;42.640;23.380;2023-05-21T06:33:24;8.43;;;5.20;;
11807;SDS011;5961;42.640;23.380;2023-05-21T06:35:51;9.87;;;5.77;;
11807;SDS011;5961;42.640;23.380;2023-05-21T06:38:18;7.90;;;5.27;;
11807;SDS011;5961;42.640;23.380;2023-05-21T06:40:44;7.97;;;5.63;;
11807;SDS011;5961;42.640;23.380;2023-05-21T06:43:12;10.03;;;6.70;;
11807;SDS011;5961;42.640;23.380;2023-05-21T06:45:40;13.33;;;6.63;;
11807;SDS011;5961;42.640;23.380;2023-05-21T06:48:06;10.33;;;6.10;;
11807;SDS011;5961;42.640;23.380;2023-05-21T06:50:33;12.20;;;6.13;;
11807;SDS011;5961;42.640;23.380;2023-05-21T06:53:00;14.23;;;6.17;;
11807;SDS011;5961;42.640;23.380;2023-05-21T06:55:27;10.73;;;6.40;;
11807;SDS011;5961;42.640;23.380;2023-05-21T06:57:53;8.97;;;6.63;;
11807;SDS011;5961;42.640;23.380;2023-05-21T07:00:20;9.97;;;6.50;;
11807;SDS011;5961;42.640;23.380;2023-05-21T07:02:48;11.23;;;8.80;;
11807;SDS011;5961;42.640;23.380;2023-05-21T07:05:15;12.37;;;7.90;;
11807;SDS011;5961;42.640;23.380;2023-05-21T07:07:41;10.53;;;7.30;;
11807;SDS011;5961;42.640;23.380;2023-05-21T07:10:08;10.00;;;5.47;;
11807;SDS011;5961;42.640;23.380;2023-05-21T07:12:35;6.53;;;4.60;;
11807;SDS011;5961;42.640;23.380;2023-05-21T07:15:02;10.60;;;4.87;;
11807;SDS011;5961;42.640;23.380;2023-05-21T07:17:29;10.50;;;5.07;;
11807;SDS011;5961;42.640;23.380;2023-05-21T07:19:57;6.10;;;4.80;;
11807;SDS011;5961;42.640;23.380;2023-05-21T07:22:24;6.90;;;4.97;;
11807;SDS011;5961;42.640;23.380;2023-05-21T07:24:51;8.43;;;5.60;;
11807;SDS011;5961;42.640;23.380;2023-05-21T07:27:17;11.30;;;5.23;;
11807;SDS011;5961;42.640;23.380;2023-05-21T07:29:44;8.60;;;5.13;;
11807;SDS011;5961;42.640;23.380;2023-05-21T07:32:11;9.73;;;6.23;;
11807;SDS011;5961;42.640;23.380;2023-05-21T07:34:37;9.27;;;6.50;;
11807;SDS011;5961;42.640;23.380;2023-05-21T07:37:05;7.43;;;5.40;;
11807;SDS011;5961;42.640;23.380;2023-05-21T07:39:32;9.53;;;5.33;;
11807;SDS011;5961;42.640;23.380;2023-05-21T07:41:59;9.20;;;5.03;;
11807;SDS011;5961;42.640;23.380;2023-05-21T07:44:25;8.30;;;5.23;;
11807;SDS011;5961;42.640;23.380;2023-05-21T07:46:52;8.53;;;5.07;;
11807;SDS011;5961;42.640;23.380;2023-05-21T07:49:19;10.93;;;6.43;;
11807;SDS011;5961;42.640;23.380;2023-05-21T07:51:45;8.97;;;6.57;;
11807;SDS011;5961;42.640;23.380;2023-05-21T07:54:13;8.80;;;7.53;;
11807;SDS011;5961;42.640;23.380;2023-05-21T07:56:40;10.37;;;6.73;;
11807;SDS011;5961;42.640;23.380;2023-05-21T07:59:07;11.93;;;6.00;;
11807;SDS011;5961;42.640;23.380;2023-05-21T08:01:34;10.80;;;6.43;;
11807;SDS011;5961;42.640;23.380;2023-05-21T08:04:01;7.90;;;4.73;;
11807;SDS011;5961;42.640;23.380;2023-05-21T08:06:29;6.83;;;4.13;;
11807;SDS011;5961;42.640;23.380;2023-05-21T08:08:58;10.37;;;5.63;;
11807;SDS011;5961;42.640;23.380;2023-05-21T08:11:27;9.00;;;4.57;;
11807;SDS011;5961;42.640;23.380;2023-05-21T08:13:53;9.37;;;5.73;;
11807;SDS011;5961;42.640;23.380;2023-05-21T08:16:20;8.57;;;4.67;;
11807;SDS011;5961;42.640;23.380;2023-05-21T08:18:48;8.63;;;5.63;;
11807;SDS011;5961;42.640;23.380;2023-05-21T08:21:15;13.00;;;4.83;;
11807;SDS011;5961;42.640;23.380;2023-05-21T08:23:42;9.03;;;4.47;;
11807;SDS011;5961;42.640;23.380;2023-05-21T08:26:08;10.73;;;4.23;;
11807;SDS011;5961;42.640;23.380;2023-05-21T08:28:37;9.73;;;4.33;;
11807;SDS011;5961;42.640;23.380;2023-05-21T08:31:04;8.93;;;4.27;;
11807;SDS011;5961;42.640;23.380;2023-05-21T08:33:33;7.60;;;4.60;;
11807;SDS011;5961;42.640;23.380;2023-05-21T08:36:01;8.23;;;4.37;;
11807;SDS011;5961;42.640;23.380;2023-05-21T08:38:28;6.70;;;4.10;;
11807;SDS011;5961;42.640;23.380;2023-05-21T08:40:55;15.40;;;4.47;;
11807;SDS011;5961;42.640;23.380;2023-05-21T08:43:23;9.27;;;4.27;;
11807;SDS011;5961;42.640;23.380;2023-05-21T08:45:55;8.40;;;4.50;;
11807;SDS011;5961;42.640;23.380;2023-05-21T08:48:23;8.57;;;5.10;;
11807;SDS011;5961;42.640;23.380;2023-05-21T08:50:50;11.43;;;6.00;;
11807;SDS011;5961;42.640;23.380;2023-05-21T08:53:17;6.63;;;5.50;;
11807;SDS011;5961;42.640;23.380;2023-05-21T08:55:44;10.63;;;6.00;;
11807;SDS011;5961;42.640;23.380;2023-05-21T08:58:11;7.13;;;4.93;;
11807;SDS011;5961;42.640;23.380;2023-05-21T09:00:40;11.87;;;5.60;;
11807;SDS011;5961;42.640;23.380;2023-05-21T09:03:08;7.93;;;4.70;;
11807;SDS011;5961;42.640;23.380;2023-05-21T09:05:38;14.87;;;6.37;;
11807;SDS011;5961;42.640;23.380;2023-05-21T09:08:06;8.77;;;5.47;;
11807;SDS011;5961;42.640;23.380;2023-05-21T09:10:40;8.07;;;4.77;;
11807;SDS011;5961;42.640;23.380;2023-05-21T09:13:16;10.40;;;6.10;;
11807;SDS011;5961;42.640;23.380;2023-05-21T09:15:43;6.83;;;5.30;;
11807;SDS011;5961;42.640;23.380;2023-05-21T09:18:11;11.60;;;4.90;;
11807;SDS011;5961;42.640;23.380;2023-05-21T09:20:38;10.57;;;5.60;;
11807;SDS011;5961;42.640;23.380;2023-05-21T09:23:05;10.33;;;5.77;;
11807;SDS011;5961;42.640;23.380;2023-05-21T09:25:36;8.53;;;4.77;;
11807;SDS011;5961;42.640;23.380;2023-05-21T09:28:09;8.60;;;4.90;;
11807;SDS011;5961;42.640;23.380;2023-05-21T09:30:42;10.43;;;5.07;;
11807;SDS011;5961;42.640;23.380;2023-05-21T09:33:11;7.37;;;4.73;;
11807;SDS011;5961;42.640;23.380;2023-05-21T09:35:43;8.83;;;4.67;;
11807;SDS011;5961;42.640;23.380;2023-05-21T09:38:11;8.43;;;4.43;;
11807;SDS011;5961;42.640;23.380;2023-05-21T09:40:38;9.33;;;4.60;;
11807;SDS011;5961;42.640;23.380;2023-05-21T09:43:12;7.03;;;4.50;;
11807;SDS011;5961;42.640;23.380;2023-05-21T09:45:48;10.60;;;5.73;;
11807;SDS011;5961;42.640;23.380;2023-05-21T09:48:17;7.93;;;4.70;;
11807;SDS011;5961;42.640;23.380;2023-05-21T09:51:05;7.93;;;5.10;;
11807;SDS011;5961;42.640;23.380;2023-05-21T09:53:33;8.30;;;5.13;;
11807;SDS011;5961;42.640;23.380;2023-05-21T09:55:59;7.37;;;4.20;;
11807;SDS011;5961;42.640;23.380;2023-05-21T09:58:27;9.30;;;6.00;;
11807;SDS011;5961;42.640;23.380;2023-05-21T10:00:54;10.43;;;5.87;;
11807;SDS011;5961;42.640;23.380;2023-05-21T10:03:22;6.93;;;4.70;;
11807;SDS011;5961;42.640;23.380;2023-05-21T10:05:52;5.18;;;4.20;;
11807;SDS011;5961;42.640;23.380;2023-05-21T10:08:22;13.50;;;7.85;;
11807;SDS011;5961;42.640;23.380;2023-05-21T10:10:52;11.40;;;7.77;;
11807;SDS011;5961;42.640;23.380;2023-05-21T10:13:19;9.18;;;4.13;;
11807;SDS011;5961;42.640;23.380;2023-05-21T10:15:49;6.65;;;4.95;;
11807;SDS011;5961;42.640;23.380;2023-05-21T10:18:20;12.57;;;5.73;;
11807;SDS011;5961;42.640;23.380;2023-05-21T10:20:49;9.37;;;5.67;;
11807;SDS011;5961;42.640;23.380;2023-05-21T10:23:17;7.93;;;5.63;;
11807;SDS011;5961;42.640;23.380;2023-05-21T10:25:45;7.47;;;4.77;;
11807;SDS011;5961;42.640;23.380;2023-05-21T10:28:12;8.03;;;5.17;;
11807;SDS011;5961;42.640;23.380;2023-05-21T10:30:42;12.80;;;6.13;;
11807;SDS011;5961;42.640;23.380;2023-05-21T10:33:09;16.77;;;6.50;;
11807;SDS011;5961;42.640;23.380;2023-05-21T10:35:39;9.63;;;6.50;;
11807;SDS011;5961;42.640;23.380;2023-05-21T10:38:07;12.30;;;6.57;;
11807;SDS011;5961;42.640;23.380;2023-05-21T10:40:34;9.80;;;7.70;;
11807;SDS011;5961;42.640;23.380;2023-05-21T10:43:05;11.07;;;7.57;;
11807;SDS011;5961;42.640;23.380;2023-05-21T10:45:46;15.13;;;7.33;;
11807;SDS011;5961;42.640;23.380;2023-05-21T10:48:27;10.93;;;7.67;;
11807;SDS011;5961;42.640;23.380;2023-05-21T10:51:19;11.63;;;6.93;;
11807;SDS011;5961;42.640;23.380;2023-05-21T10:56:52;9.13;;;5.77;;
11807;SDS011;5961;42.640;23.380;2023-05-21T10:59:29;6.07;;;4.77;;
11807;SDS011;5961;42.640;23.380;2023-05-21T11:02:05;7.47;;;5.20;;
11807;SDS011;5961;42.640;23.380;2023-05-21T11:04:32;7.27;;;4.73;;
11807;SDS011;5961;42.640;23.380;2023-05-21T11:07:05;7.18;;;3.88;;
11807;SDS011;5961;42.640;23.380;2023-05-21T11:09:32;9.20;;;6.10;;
11807;SDS011;5961;42.640;23.380;2023-05-21T11:11:59;17.90;;;11.80;;
11807;SDS011;5961;42.640;23.380;2023-05-21T11:14:28;13.70;;;7.57;;
11807;SDS011;5961;42.640;23.380;2023-05-21T11:17:00;12.98;;;8.18;;
11807;SDS011;5961;42.640;23.380;2023-05-21T11:19:34;11.47;;;6.67;;
11807;SDS011;5961;42.640;23.380;2023-05-21T11:22:07;12.65;;;6.82;;
11807;SDS011;5961;42.640;23.380;2023-05-21T11:24:37;12.10;;;9.05;;
11807;SDS011;5961;42.640;23.380;2023-05-21T11:27:05;9.77;;;6.53;;
11807;SDS011;5961;42.640;23.380;2023-05-21T11:29:39;14.25;;;8.80;;
11807;SDS011;5961;42.640;23.380;2023-05-21T11:32:10;6.22;;;4.65;;
11807;SDS011;5961;42.640;23.380;2023-05-21T11:34:39;7.45;;;5.00;;
11807;SDS011;5961;42.640;23.380;2023-05-21T11:37:24;12.93;;;5.65;;
11807;SDS011;5961;42.640;23.380;2023-05-21T11:39:56;8.63;;;4.40;;
11807;SDS011;5961;42.640;23.380;2023-05-21T11:42:41;13.00;;;5.83;;
11807;SDS011;5961;42.640;23.380;2023-05-21T11:45:09;9.15;;;4.50;;
11807;SDS011;5961;42.640;23.380;2023-05-21T11:47:36;7.23;;;4.27;;
11807;SDS011;5961;42.640;23.380;2023-05-21T11:50:05;8.57;;;4.20;;
11807;SDS011;5961;42.640;23.380;2023-05-21T11:52:39;10.80;;;5.10;;
11807;SDS011;5961;42.640;23.380;2023-05-21T11:55:06;6.90;;;4.65;;
11807;SDS011;5961;42.640;23.380;2023-05-21T11:57:33;6.25;;;4.50;;
11807;SDS011;5961;42.640;23.380;2023-05-21T12:00:00;10.03;;;5.57;;
11807;SDS011;5961;42.640;23.380;2023-05-21T12:02:35;7.90;;;4.20;;
11807;SDS011;5961;42.640;23.380;2023-05-21T12:05:02;6.17;;;4.03;;
11807;SDS011;5961;42.640;23.380;2023-05-21T12:07:30;8.40;;;4.40;;
11807;SDS011;5961;42.640;23.380;2023-05-21T12:09:58;7.37;;;4.50;;
11807;SDS011;5961;42.640;23.380;2023-05-21T12:12:26;5.50;;;4.43;;
11807;SDS011;5961;42.640;23.380;2023-05-21T12:14:53;6.35;;;4.47;;
11807;SDS011;5961;42.640;23.380;2023-05-21T12:17:21;7.60;;;4.33;;
11807;SDS011;5961;42.640;23.380;2023-05-21T12:19:49;9.87;;;4.70;;
11807;SDS011;5961;42.640;23.380;2023-05-21T12:22:17;7.90;;;4.60;;
11807;SDS011;5961;42.640;23.380;2023-05-21T12:24:44;8.20;;;4.33;;
11807;SDS011;5961;42.640;23.380;2023-05-21T12:27:14;9.30;;;4.77;;
11807;SDS011;5961;42.640;23.380;2023-05-21T12:29:42;12.00;;;4.20;;
11807;SDS011;5961;42.640;23.380;2023-05-21T12:32:10;6.83;;;4.93;;
11807;SDS011;5961;42.640;23.380;2023-05-21T12:34:39;6.63;;;4.20;;
11807;SDS011;5961;42.640;23.380;2023-05-21T12:37:09;7.87;;;4.50;;
11807;SDS011;5961;42.640;23.380;2023-05-21T12:39:37;8.07;;;4.37;;
11807;SDS011;5961;42.640;23.380;2023-05-21T12:42:08;10.30;;;4.40;;
11807;SDS011;5961;42.640;23.380;2023-05-21T12:44:36;9.77;;;4.33;;
11807;SDS011;5961;42.640;23.380;2023-05-21T12:47:04;9.70;;;6.63;;
11807;SDS011;5961;42.640;23.380;2023-05-21T12:49:32;9.53;;;5.07;;
11807;SDS011;5961;42.640;23.380;2023-05-21T12:52:07;9.00;;;4.90;;
11807;SDS011;5961;42.640;23.380;2023-05-21T12:54:36;12.20;;;5.37;;
11807;SDS011;5961;42.640;23.380;2023-05-21T12:57:07;14.37;;;5.20;;
11807;SDS011;5961;42.640;23.380;2023-05-21T12:59:49;13.23;;;4.70;;
11807;SDS011;5961;42.640;23.380;2023-05-21T13:02:20;7.00;;;4.33;;
11807;SDS011;5961;42.640;23.380;2023-05-21T13:04:52;7.53;;;4.60;;
11807;SDS011;5961;42.640;23.380;2023-05-21T13:07:20;10.23;;;5.07;;
11807;SDS011;5961;42.640;23.380;2023-05-21T13:09:47;8.63;;;5.50;;
11807;SDS011;5961;42.640;23.380;2023-05-21T13:12:14;7.10;;;4.23;;
11807;SDS011;5961;42.640;23.380;2023-05-21T13:14:41;9.37;;;4.50;;
11807;SDS011;5961;42.640;23.380;2023-05-21T13:17:09;8.03;;;4.53;;
11807;SDS011;5961;42.640;23.380;2023-05-21T13:19:36;11.07;;;4.53;;
11807;SDS011;5961;42.640;23.380;2023-05-21T13:22:02;6.20;;;4.10;;
11807;SDS011;5961;42.640;23.380;2023-05-21T13:24:31;10.57;;;4.17;;
11807;SDS011;5961;42.640;23.380;2023-05-21T13:26:57;4.83;;;4.00;;
11807;SDS011;5961;42.640;23.380;2023-05-21T13:29:24;8.50;;;4.27;;
11807;SDS011;5961;42.640;23.380;2023-05-21T13:31:51;10.40;;;5.20;;
11807;SDS011;5961;42.640;23.380;2023-05-21T13:34:19;9.73;;;5.77;;
11807;SDS011;5961;42.640;23.380;2023-05-21T13:36:45;6.63;;;4.57;;
11807;SDS011;5961;42.640;23.380;2023-05-21T13:39:12;9.03;;;4.37;;
11807;SDS011;5961;42.640;23.380;2023-05-21T13:41:39;10.53;;;4.10;;
11807;SDS011;5961;42.640;23.380;2023-05-21T13:44:06;11.70;;;4.80;;
11807;SDS011;5961;42.640;23.380;2023-05-21T13:46:33;8.38;;;5.10;;
11807;SDS011;5961;42.640;23.380;2023-05-21T13:49:03;6.53;;;4.73;;
11807;SDS011;5961;42.640;23.380;2023-05-21T13:51:31;9.23;;;4.87;;
11807;SDS011;5961;42.640;23.380;2023-05-21T13:53:58;11.20;;;5.20;;
11807;SDS011;5961;42.640;23.380;2023-05-21T13:56:25;9.02;;;4.65;;
11807;SDS011;5961;42.640;23.380;2023-05-21T13:58:51;9.07;;;4.60;;
11807;SDS011;5961;42.640;23.380;2023-05-21T14:01:18;7.93;;;4.70;;
11807;SDS011;5961;42.640;23.380;2023-05-21T14:03:45;12.70;;;4.90;;
11807;SDS011;5961;42.640;23.380;2023-05-21T14:06:12;12.25;;;5.30;;
11807;SDS011;5961;42.640;23.380;2023-05-21T14:08:40;7.73;;;4.30;;
11807;SDS011;5961;42.640;23.380;2023-05-21T14:11:07;9.73;;;4.63;;
11807;SDS011;5961;42.640;23.380;2023-05-21T14:13:33;9.63;;;4.83;;
11807;SDS011;5961;42.640;23.380;2023-05-21T14:16:00;8.87;;;4.93;;
11807;SDS011;5961;42.640;23.380;2023-05-21T14:18:27;9.43;;;4.50;;
11807;SDS011;5961;42.640;23.380;2023-05-21T14:20:53;8.70;;;4.97;;
11807;SDS011;5961;42.640;23.380;2023-05-21T14:23:20;7.47;;;5.10;;
11807;SDS011;5961;42.640;23.380;2023-05-21T14:25:48;8.33;;;5.10;;
11807;SDS011;5961;42.640;23.380;2023-05-21T14:28:15;12.20;;;4.20;;
11807;SDS011;5961;42.640;23.380;2023-05-21T14:30:41;6.27;;;4.73;;
11807;SDS011;5961;42.640;23.380;2023-05-21T14:33:08;8.27;;;4.57;;
11807;SDS011;5961;42.640;23.380;2023-05-21T14:35:35;8.70;;;5.07;;
11807;SDS011;5961;42.640;23.380;2023-05-21T14:38:02;9.23;;;6.22;;
11807;SDS011;5961;42.640;23.380;2023-05-21T14:40:28;12.47;;;5.50;;
11807;SDS011;5961;42.640;23.380;2023-05-21T14:42:56;11.20;;;5.93;;
11807;SDS011;5961;42.640;23.380;2023-05-21T14:45:23;10.15;;;4.75;;
11807;SDS011;5961;42.640;23.380;2023-05-21T14:47:50;10.63;;;4.53;;
11807;SDS011;5961;42.640;23.380;2023-05-21T14:50:16;8.43;;;5.27;;